createdAt,value
2023-01-20T00:01:18.112Z,3.20
2023-01-20T00:03:48.126Z,3.20
2023-01-20T00:06:16.556Z,3.20
2023-01-20T00:08:44.883Z,3.20
2023-01-20T00:11:36.040Z,3.20
2023-01-20T00:14:04.641Z,3.10
2023-01-20T00:16:37.337Z,3.10
2023-01-20T00:19:05.577Z,3.10
2023-01-20T00:21:35.054Z,3.10
2023-01-20T00:24:03.327Z,3.10
2023-01-20T00:26:31.475Z,3.00
2023-01-20T00:28:59.772Z,3.00
2023-01-20T00:31:29.467Z,3.00
2023-01-20T00:34:00.843Z,3.00
2023-01-20T00:36:31.257Z,3.00
2023-01-20T00:39:03.191Z,2.90
2023-01-20T00:41:31.722Z,2.90
2023-01-20T00:44:00.067Z,2.90
2023-01-20T00:46:28.443Z,2.70
2023-01-20T00:48:58.022Z,2.80
2023-01-20T00:51:26.170Z,2.80
2023-01-20T00:53:54.422Z,2.80
2023-01-20T00:56:25.125Z,2.80
2023-01-20T00:58:55.177Z,2.80
2023-01-20T01:01:23.549Z,2.80
2023-01-20T01:03:54.648Z,2.80
2023-01-20T01:06:24.431Z,2.80
2023-01-20T01:08:53.166Z,2.80
2023-01-20T01:11:21.335Z,2.70
2023-01-20T01:13:52.495Z,2.80
2023-01-20T01:16:22.956Z,2.70
2023-01-20T01:18:53.660Z,2.70
2023-01-20T01:21:24.169Z,2.70
2023-01-20T01:23:53.813Z,2.60
2023-01-20T01:26:24.701Z,2.60
2023-01-20T01:28:55.136Z,2.70
2023-01-20T01:31:23.368Z,2.70
2023-01-20T01:33:51.613Z,2.70
2023-01-20T01:36:19.921Z,2.70
2023-01-20T01:38:58.451Z,2.70
2023-01-20T01:41:27.577Z,2.60
2023-01-20T01:44:07.342Z,2.70
2023-01-20T01:46:35.912Z,2.70
2023-01-20T01:49:08.392Z,2.70
2023-01-20T01:51:40.245Z,2.70
2023-01-20T01:54:13.156Z,2.60
2023-01-20T01:56:45.579Z,2.70
2023-01-20T01:59:15.069Z,2.70
2023-01-20T02:01:47.901Z,2.70
2023-01-20T02:04:17.652Z,2.70
2023-01-20T02:06:48.611Z,2.70
2023-01-20T02:09:18.575Z,2.70
2023-01-20T02:11:49.623Z,2.70
2023-01-20T02:14:23.558Z,2.70
2023-01-20T02:17:00.283Z,2.80
2023-01-20T02:19:55.969Z,2.80
2023-01-20T02:22:35.166Z,2.70
2023-01-20T02:25:30.626Z,2.80
2023-01-20T02:28:22.121Z,2.80
2023-01-20T02:31:22.617Z,2.90
2023-01-20T02:33:57.750Z,2.80
2023-01-20T02:36:31.262Z,2.80
2023-01-20T02:39:04.157Z,2.80
2023-01-20T02:41:39.924Z,2.80
2023-01-20T02:44:17.574Z,2.80
2023-01-20T02:47:05.172Z,2.80
2023-01-20T02:49:37.865Z,2.80
2023-01-20T02:52:10.827Z,2.80
2023-01-20T02:54:43.160Z,2.80
2023-01-20T02:57:15.325Z,2.80
2023-01-20T02:59:47.058Z,2.80
2023-01-20T03:02:18.735Z,2.80
2023-01-20T03:04:52.576Z,2.80
2023-01-20T03:07:22.534Z,2.80
2023-01-20T03:09:55.229Z,2.80
2023-01-20T03:12:26.842Z,2.80
2023-01-20T03:14:55.457Z,2.80
2023-01-20T03:17:24.096Z,2.90
2023-01-20T03:19:53.848Z,2.90
2023-01-20T03:22:22.015Z,2.80
2023-01-20T03:24:50.787Z,2.80
2023-01-20T03:27:19.035Z,2.80
2023-01-20T03:29:47.189Z,2.80
2023-01-20T03:32:16.254Z,2.80
2023-01-20T03:34:47.093Z,2.90
2023-01-20T03:37:16.827Z,2.90
2023-01-20T03:39:45.093Z,2.80
2023-01-20T03:42:20.982Z,2.80
2023-01-20T03:45:01.660Z,2.90
2023-01-20T03:47:47.778Z,2.80
2023-01-20T03:50:28.547Z,2.80
2023-01-20T03:53:02.791Z,2.80
2023-01-20T03:55:39.453Z,2.90
2023-01-20T03:58:12.027Z,2.90
2023-01-20T04:00:43.205Z,2.90
2023-01-20T04:03:17.701Z,2.90
2023-01-20T04:05:48.066Z,2.90
2023-01-20T04:08:19.995Z,3.00
2023-01-20T04:10:50.228Z,3.00
2023-01-20T04:13:21.626Z,3.00
2023-01-20T04:15:49.874Z,3.00
2023-01-20T04:18:22.940Z,3.00
2023-01-20T04:20:54.647Z,2.90
2023-01-20T04:23:27.731Z,3.00
2023-01-20T04:25:55.994Z,3.00
2023-01-20T04:28:24.201Z,2.90
2023-01-20T04:30:52.617Z,3.00
2023-01-20T04:33:20.969Z,3.00
2023-01-20T04:35:49.134Z,3.00
2023-01-20T04:38:17.388Z,3.00
2023-01-20T04:40:46.892Z,3.00
2023-01-20T04:43:18.484Z,3.10
2023-01-20T04:45:46.654Z,3.10
2023-01-20T04:48:14.943Z,3.10
2023-01-20T04:50:43.560Z,3.10
2023-01-20T04:53:19.121Z,3.10
2023-01-20T04:55:48.761Z,3.10
2023-01-20T04:58:17.001Z,3.20
2023-01-20T05:00:45.246Z,3.10
2023-01-20T05:03:13.390Z,3.10
2023-01-20T05:05:41.556Z,3.10
2023-01-20T05:08:09.707Z,3.10
2023-01-20T05:10:37.967Z,3.10
2023-01-20T05:13:07.475Z,3.10
2023-01-20T05:15:35.817Z,3.10
2023-01-20T05:18:04.025Z,3.10
2023-01-20T05:20:32.359Z,3.10
2023-01-20T05:23:01.442Z,3.10
2023-01-20T05:25:29.838Z,3.10
2023-01-20T05:27:59.248Z,3.10
2023-01-20T05:30:31.988Z,3.10
2023-01-20T05:33:00.239Z,3.10
2023-01-20T05:35:28.659Z,3.10
2023-01-20T05:37:56.845Z,3.10
2023-01-20T05:40:25.057Z,3.10
2023-01-20T05:42:53.296Z,3.20
2023-01-20T05:45:21.506Z,3.20
2023-01-20T05:47:56.302Z,3.20
2023-01-20T05:50:24.717Z,3.10
2023-01-20T05:52:53.120Z,3.20
2023-01-20T05:55:21.819Z,3.10
2023-01-20T05:57:50.092Z,3.10
2023-01-20T06:00:19.832Z,3.10
2023-01-20T06:02:48.053Z,3.20
2023-01-20T06:05:18.200Z,3.20
2023-01-20T06:07:46.423Z,3.20
2023-01-20T06:10:17.449Z,3.20
2023-01-20T06:12:45.657Z,3.20
2023-01-20T06:15:14.187Z,3.10
2023-01-20T06:17:42.668Z,3.20
2023-01-20T06:20:12.243Z,3.20
2023-01-20T06:22:41.847Z,3.20
2023-01-20T06:25:10.676Z,3.20
2023-01-20T06:27:38.841Z,3.20
2023-01-20T06:30:08.744Z,3.20
2023-01-20T06:32:36.949Z,3.20
2023-01-20T06:35:05.379Z,3.30
2023-01-20T06:37:33.608Z,3.30
2023-01-20T06:40:03.189Z,3.30
2023-01-20T06:42:32.578Z,3.30
2023-01-20T06:45:00.815Z,3.30
2023-01-20T06:47:29.221Z,3.30
2023-01-20T06:49:57.372Z,3.40
2023-01-20T06:52:25.671Z,3.30
2023-01-20T06:54:53.801Z,3.30
2023-01-20T06:57:23.432Z,3.30
2023-01-20T06:59:51.660Z,3.30
2023-01-20T07:02:19.852Z,3.30
2023-01-20T07:04:48.031Z,3.30
2023-01-20T07:07:16.233Z,3.30
2023-01-20T07:09:44.470Z,3.40
2023-01-20T07:12:14.957Z,3.30
2023-01-20T07:14:44.492Z,3.30
2023-01-20T07:17:13.695Z,3.30
2023-01-20T07:19:41.987Z,3.30
2023-01-20T07:22:10.323Z,3.30
2023-01-20T07:24:38.564Z,3.40
2023-01-20T07:27:06.823Z,3.40
2023-01-20T07:29:35.070Z,3.40
2023-01-20T07:32:04.745Z,3.40
2023-01-20T07:34:32.934Z,3.40
2023-01-20T07:37:02.470Z,3.50
2023-01-20T07:39:30.725Z,3.50
2023-01-20T07:41:58.927Z,3.50
2023-01-20T07:44:27.134Z,3.50
2023-01-20T07:46:55.366Z,3.50
2023-01-20T07:49:24.882Z,3.50
2023-01-20T07:51:55.588Z,3.50
2023-01-20T07:54:23.828Z,3.60
2023-01-20T07:56:52.028Z,3.60
2023-01-20T07:59:20.195Z,3.60
2023-01-20T08:01:48.452Z,3.60
2023-01-20T08:04:19.167Z,3.60
2023-01-20T08:06:48.747Z,3.70
2023-01-20T08:09:19.302Z,3.70
2023-01-20T08:11:47.660Z,3.70
2023-01-20T08:14:18.332Z,3.70
2023-01-20T08:16:46.611Z,3.80
2023-01-20T08:19:14.796Z,3.80
2023-01-20T08:21:43.105Z,3.90
2023-01-20T08:24:12.672Z,3.90
2023-01-20T08:26:40.846Z,3.90
2023-01-20T08:29:10.400Z,4.00
2023-01-20T08:31:38.976Z,4.00
2023-01-20T08:34:07.237Z,4.00
2023-01-20T08:36:37.907Z,4.10
2023-01-20T08:39:08.754Z,4.10
2023-01-20T08:41:40.567Z,4.10
2023-01-20T08:44:09.875Z,4.10
2023-01-20T08:46:41.532Z,4.10
2023-01-20T08:49:10.728Z,4.20
2023-01-20T08:51:42.102Z,4.20
2023-01-20T08:54:10.473Z,4.20
2023-01-20T08:56:40.104Z,4.10
2023-01-20T08:59:08.767Z,4.10
2023-01-20T09:01:38.015Z,4.20
2023-01-20T09:04:07.681Z,4.20
2023-01-20T09:06:42.859Z,4.20
2023-01-20T09:09:11.787Z,4.20
2023-01-20T09:11:44.823Z,4.30
2023-01-20T09:14:13.301Z,4.30
2023-01-20T09:16:41.507Z,4.30
2023-01-20T09:19:09.695Z,4.30
2023-01-20T09:21:39.215Z,4.40
2023-01-20T09:24:08.296Z,4.50
2023-01-20T09:26:39.533Z,4.50
2023-01-20T09:29:12.484Z,4.50
2023-01-20T09:31:44.415Z,4.50
2023-01-20T09:34:15.387Z,4.60
2023-01-20T09:36:43.674Z,4.60
2023-01-20T09:39:32.208Z,4.60
2023-01-20T09:42:35.024Z,4.60
2023-01-20T09:45:22.803Z,4.60
2023-01-20T09:47:51.694Z,4.50
2023-01-20T09:50:53.433Z,4.60
2023-01-20T09:53:35.682Z,4.60
2023-01-20T09:56:09.017Z,4.50
2023-01-20T09:58:42.669Z,4.50
2023-01-20T10:01:19.165Z,4.50
2023-01-20T10:03:55.345Z,4.60
2023-01-20T10:06:27.691Z,4.60
2023-01-20T10:09:05.881Z,4.50
2023-01-20T10:11:39.113Z,4.60
2023-01-20T10:14:13.845Z,4.60
2023-01-20T10:16:49.656Z,4.60
2023-01-20T10:19:27.307Z,4.60
2023-01-20T10:22:02.758Z,4.70
2023-01-20T10:24:37.717Z,4.60
2023-01-20T10:27:06.559Z,4.60
2023-01-20T10:29:38.348Z,4.60
2023-01-20T10:32:16.768Z,4.70
2023-01-20T10:34:48.751Z,4.70
2023-01-20T10:37:17.182Z,4.70
2023-01-20T10:39:52.587Z,4.70
2023-01-20T10:42:21.256Z,4.70
2023-01-20T10:44:51.506Z,4.70
2023-01-20T10:47:27.452Z,4.80
2023-01-20T10:50:34.550Z,4.80
2023-01-20T10:53:34.081Z,4.80
2023-01-20T10:56:29.218Z,4.70
2023-01-20T10:58:57.896Z,4.90
2023-01-20T11:01:26.722Z,4.80
2023-01-20T11:03:56.348Z,4.80
2023-01-20T11:06:26.874Z,4.80
2023-01-20T11:08:55.620Z,4.90
2023-01-20T11:11:26.250Z,5.00
2023-01-20T11:13:55.235Z,5.00
2023-01-20T11:16:26.480Z,5.00
2023-01-20T11:19:01.832Z,5.00
2023-01-20T11:21:33.495Z,5.00
2023-01-20T11:24:02.193Z,5.00
2023-01-20T11:26:33.177Z,4.90
2023-01-20T11:29:03.618Z,5.00
2023-01-20T11:31:40.773Z,5.00
2023-01-20T11:34:29.329Z,5.00
2023-01-20T11:37:17.328Z,5.00
2023-01-20T11:39:57.228Z,5.00
2023-01-20T11:42:27.569Z,5.00
2023-01-20T11:45:01.052Z,5.00
2023-01-20T11:47:36.589Z,5.00
2023-01-20T11:50:31.459Z,5.00
2023-01-20T11:53:17.787Z,5.00
2023-01-20T11:55:51.334Z,4.90
2023-01-20T11:58:22.096Z,4.90
2023-01-20T12:00:52.492Z,5.00
2023-01-20T12:03:49.122Z,4.90
2023-01-20T12:06:24.362Z,4.90
2023-01-20T12:08:56.446Z,4.90
2023-01-20T12:11:28.770Z,5.00
2023-01-20T12:14:23.365Z,5.00
2023-01-20T12:17:14.437Z,5.00
2023-01-20T12:19:56.853Z,4.90
2023-01-20T12:22:38.772Z,4.80
2023-01-20T12:25:18.043Z,4.70
2023-01-20T12:27:50.624Z,4.70
2023-01-20T12:30:48.869Z,4.70
2023-01-20T12:33:25.983Z,4.60
2023-01-20T12:36:25.081Z,4.60
2023-01-20T12:39:16.402Z,4.50
2023-01-20T12:42:20.663Z,4.60
2023-01-20T12:44:51.758Z,4.50
2023-01-20T12:47:36.076Z,4.60
2023-01-20T12:50:28.301Z,4.60
2023-01-20T12:53:11.786Z,4.50
2023-01-20T12:55:56.995Z,4.50
2023-01-20T12:58:39.947Z,4.50
2023-01-20T13:01:38.673Z,4.50
2023-01-20T13:04:37.358Z,4.40
2023-01-20T13:07:19.433Z,4.50
2023-01-20T13:10:03.162Z,4.50
2023-01-20T13:12:42.431Z,4.50
2023-01-20T13:15:22.380Z,4.50
2023-01-20T13:18:13.189Z,4.50
2023-01-20T13:20:45.565Z,4.60
2023-01-20T13:23:17.210Z,4.50
2023-01-20T13:25:47.608Z,4.50
2023-01-20T13:28:20.225Z,4.50
2023-01-20T13:30:51.562Z,4.50
2023-01-20T13:33:32.518Z,4.50
2023-01-20T13:36:01.724Z,4.50
2023-01-20T13:38:35.965Z,4.50
2023-01-20T13:41:07.048Z,4.40
2023-01-20T13:43:50.461Z,4.50
2023-01-20T13:46:47.687Z,4.40
2023-01-20T13:49:25.882Z,4.40
2023-01-20T13:51:54.201Z,4.50
2023-01-20T13:54:48.472Z,4.40
2023-01-20T13:57:46.179Z,4.40
2023-01-20T14:00:20.474Z,4.40
2023-01-20T14:02:50.400Z,4.30
2023-01-20T14:05:28.014Z,4.30
2023-01-20T14:07:59.083Z,4.20
2023-01-20T14:10:27.894Z,4.20
2023-01-20T14:12:56.184Z,4.20
2023-01-20T14:15:33.322Z,4.20
2023-01-20T14:18:02.183Z,4.20
2023-01-20T14:20:31.196Z,4.10
2023-01-20T14:23:27.692Z,4.10
2023-01-20T14:26:05.035Z,4.10
2023-01-20T14:28:35.543Z,4.00
2023-01-20T14:31:36.444Z,4.00
2023-01-20T14:34:23.081Z,4.00
2023-01-20T14:36:52.969Z,4.00
2023-01-20T14:39:26.437Z,4.00
2023-01-20T14:41:56.374Z,3.90
2023-01-20T14:44:26.580Z,3.90
2023-01-20T14:46:58.799Z,3.90
2023-01-20T14:49:33.666Z,3.90
2023-01-20T14:52:02.815Z,3.90
2023-01-20T14:54:40.085Z,3.90
2023-01-20T14:57:26.617Z,3.80
2023-01-20T15:00:12.361Z,3.80
2023-01-20T15:02:44.116Z,3.80
2023-01-20T15:05:27.782Z,3.90
2023-01-20T15:08:25.436Z,3.90
2023-01-20T15:11:22.103Z,3.90
2023-01-20T15:14:11.227Z,3.90
2023-01-20T15:16:51.030Z,3.90
2023-01-20T15:19:38.870Z,3.90
2023-01-20T15:22:24.698Z,3.90
2023-01-20T15:24:53.705Z,3.90
2023-01-20T15:27:28.249Z,3.80
2023-01-20T15:30:02.208Z,3.80
2023-01-20T15:32:30.484Z,3.80
2023-01-20T15:35:00.008Z,3.80
2023-01-20T15:37:28.265Z,3.80
2023-01-20T15:39:56.452Z,3.80
2023-01-20T15:42:24.623Z,3.80
2023-01-20T15:44:52.804Z,3.80
2023-01-20T15:47:26.064Z,3.80
2023-01-20T15:49:54.293Z,3.80
2023-01-20T15:52:23.898Z,3.70
2023-01-20T15:54:52.182Z,3.70
2023-01-20T15:57:20.644Z,3.70
2023-01-20T15:59:50.200Z,3.70
2023-01-20T16:02:19.877Z,3.70
2023-01-20T16:04:48.533Z,3.70
2023-01-20T16:07:19.517Z,3.80
2023-01-20T16:09:49.292Z,3.80
2023-01-20T16:12:19.247Z,3.80
2023-01-20T16:14:47.471Z,3.80
2023-01-20T16:17:17.439Z,3.80
2023-01-20T16:19:46.057Z,3.70
2023-01-20T16:22:17.345Z,3.70
2023-01-20T16:24:45.703Z,3.70
2023-01-20T16:27:19.800Z,3.70
2023-01-20T16:29:48.301Z,3.80
2023-01-20T16:32:18.764Z,3.80
2023-01-20T16:34:50.222Z,3.80
2023-01-20T16:37:18.398Z,3.70
2023-01-20T16:39:46.722Z,3.60
2023-01-20T16:42:18.556Z,3.60
2023-01-20T16:44:46.859Z,3.50
2023-01-20T16:47:15.041Z,3.50
2023-01-20T16:49:43.250Z,3.50
2023-01-20T16:52:12.047Z,3.50
2023-01-20T16:54:40.314Z,3.50
2023-01-20T16:57:09.428Z,3.50
2023-01-20T16:59:39.042Z,3.50
2023-01-20T17:02:07.408Z,3.50
2023-01-20T17:04:35.927Z,3.40
2023-01-20T17:07:04.084Z,3.40
2023-01-20T17:09:32.275Z,3.40
2023-01-20T17:12:00.466Z,3.30
2023-01-20T17:14:28.694Z,3.30
2023-01-20T17:16:59.514Z,3.30
2023-01-20T17:19:27.876Z,3.30
2023-01-20T17:21:58.402Z,3.30
2023-01-20T17:24:26.578Z,3.30
2023-01-20T17:26:54.724Z,3.20
2023-01-20T17:29:23.063Z,3.20
2023-01-20T17:31:51.251Z,3.20
2023-01-20T17:34:20.784Z,3.10
2023-01-20T17:36:49.556Z,3.20
2023-01-20T17:39:17.828Z,3.20
2023-01-20T17:41:46.036Z,3.30
2023-01-20T17:44:14.684Z,3.20
2023-01-20T17:46:43.032Z,3.20
2023-01-20T17:49:11.199Z,3.20
2023-01-20T17:51:40.765Z,3.20
2023-01-20T17:54:11.349Z,3.20
2023-01-20T17:56:42.130Z,3.20
2023-01-20T17:59:10.467Z,3.20
2023-01-20T18:01:38.697Z,3.20
2023-01-20T18:04:10.330Z,3.20
2023-01-20T18:06:40.250Z,3.30
2023-01-20T18:09:08.937Z,3.30
2023-01-20T18:11:38.257Z,3.20
2023-01-20T18:14:07.058Z,3.20
2023-01-20T18:16:37.997Z,3.20
2023-01-20T18:19:06.435Z,3.20
2023-01-20T18:21:36.609Z,3.20
2023-01-20T18:24:08.334Z,3.30
2023-01-20T18:26:38.833Z,3.30
2023-01-20T18:29:09.350Z,3.20
2023-01-20T18:31:37.673Z,3.20
2023-01-20T18:34:07.883Z,3.30
2023-01-20T18:36:40.482Z,3.30
2023-01-20T18:39:17.437Z,3.20
2023-01-20T18:41:46.043Z,3.20
2023-01-20T18:44:17.473Z,3.20
2023-01-20T18:46:46.452Z,3.20
2023-01-20T18:49:15.214Z,3.20
2023-01-20T18:51:57.627Z,3.30
2023-01-20T18:54:30.127Z,3.30
2023-01-20T18:56:58.482Z,3.30
2023-01-20T18:59:26.830Z,3.30
2023-01-20T19:01:56.422Z,3.30
2023-01-20T19:04:24.611Z,3.40
2023-01-20T19:06:53.159Z,3.40
2023-01-20T19:09:21.351Z,3.40
2023-01-20T19:11:50.877Z,3.40
2023-01-20T19:14:19.133Z,3.40
2023-01-20T19:16:49.395Z,3.40
2023-01-20T19:19:20.631Z,3.40
2023-01-20T19:21:51.786Z,3.40
2023-01-20T19:24:21.619Z,3.30
2023-01-20T19:26:54.189Z,3.40
2023-01-20T19:29:28.334Z,3.30
2023-01-20T19:31:57.801Z,3.30
2023-01-20T19:34:27.138Z,3.30
2023-01-20T19:36:55.440Z,3.30
2023-01-20T19:39:23.759Z,3.30
2023-01-20T19:41:55.826Z,3.40
2023-01-20T19:44:24.650Z,3.40
2023-01-20T19:46:52.863Z,3.40
2023-01-20T19:49:22.407Z,3.30
2023-01-20T19:51:53.591Z,3.30
2023-01-20T19:54:24.295Z,3.30
2023-01-20T19:56:52.467Z,3.30
2023-01-20T19:59:22.419Z,3.30
2023-01-20T20:01:50.641Z,3.40
2023-01-20T20:04:20.605Z,3.40
2023-01-20T20:06:49.055Z,3.40
2023-01-20T20:09:20.133Z,3.40
2023-01-20T20:11:49.270Z,3.40
2023-01-20T20:14:18.999Z,3.40
2023-01-20T20:16:49.897Z,3.40
2023-01-20T20:19:19.617Z,3.40
2023-01-20T20:21:48.020Z,3.40
2023-01-20T20:24:19.517Z,3.40
2023-01-20T20:26:50.243Z,3.40
2023-01-20T20:29:20.221Z,3.40
2023-01-20T20:31:50.036Z,3.40
2023-01-20T20:34:19.785Z,3.40
2023-01-20T20:36:48.501Z,3.40
2023-01-20T20:39:18.922Z,3.40
2023-01-20T20:41:49.673Z,3.40
2023-01-20T20:44:18.068Z,3.50
2023-01-20T20:46:46.319Z,3.50
2023-01-20T20:49:16.996Z,3.50
2023-01-20T20:51:47.701Z,3.40
2023-01-20T20:54:17.164Z,3.40
2023-01-20T20:56:48.652Z,3.40
2023-01-20T20:59:23.003Z,3.40
2023-01-20T21:01:51.801Z,3.40
2023-01-20T21:04:21.398Z,3.30
2023-01-20T21:06:49.665Z,3.30
2023-01-20T21:09:18.055Z,3.40
2023-01-20T21:11:46.303Z,3.40
2023-01-20T21:14:14.509Z,3.40
2023-01-20T21:16:42.740Z,3.30
2023-01-20T21:19:11.040Z,3.30
2023-01-20T21:21:40.919Z,3.30
2023-01-20T21:24:10.918Z,3.30
2023-01-20T21:26:43.121Z,3.30
2023-01-20T21:29:12.080Z,3.30
2023-01-20T21:31:40.469Z,3.30
2023-01-20T21:34:08.706Z,3.20
2023-01-20T21:36:41.486Z,3.30
2023-01-20T21:39:16.052Z,3.30
2023-01-20T21:41:44.569Z,3.20
2023-01-20T21:44:33.069Z,3.20
2023-01-20T21:47:02.784Z,3.20
2023-01-20T21:49:50.982Z,3.20
2023-01-20T21:52:38.662Z,3.30
2023-01-20T21:55:10.410Z,3.20
2023-01-20T21:57:41.600Z,3.20
2023-01-20T22:00:15.713Z,3.20
2023-01-20T22:02:45.590Z,3.20
2023-01-20T22:05:14.417Z,3.20
2023-01-20T22:07:42.620Z,3.20
2023-01-20T22:10:15.497Z,3.20
2023-01-20T22:12:43.807Z,3.20
2023-01-20T22:15:14.738Z,3.20
2023-01-20T22:17:42.946Z,3.20
2023-01-20T22:20:12.382Z,3.20
2023-01-20T22:22:40.681Z,3.20
2023-01-20T22:25:09.477Z,3.10
2023-01-20T22:27:39.324Z,3.10
2023-01-20T22:30:11.356Z,3.10
2023-01-20T22:32:49.632Z,3.20
2023-01-20T22:35:21.010Z,3.20
2023-01-20T22:37:49.358Z,3.20
2023-01-20T22:40:19.330Z,3.20
2023-01-20T22:42:52.045Z,3.20
2023-01-20T22:45:21.927Z,3.30
2023-01-20T22:47:50.078Z,3.20
2023-01-20T22:50:21.333Z,3.20
2023-01-20T22:52:51.816Z,3.20
2023-01-20T22:55:21.153Z,3.20
2023-01-20T22:57:59.041Z,3.20
2023-01-20T23:00:33.111Z,3.20
2023-01-20T23:03:01.412Z,3.20
2023-01-20T23:05:29.664Z,3.20
2023-01-20T23:08:00.068Z,3.20
2023-01-20T23:10:48.102Z,3.30
2023-01-20T23:13:18.645Z,3.30
2023-01-20T23:15:46.830Z,3.20
2023-01-20T23:18:15.102Z,3.20
2023-01-20T23:20:45.537Z,3.20
2023-01-20T23:23:14.961Z,3.20
2023-01-20T23:25:43.274Z,3.10
2023-01-20T23:28:12.440Z,3.10
2023-01-20T23:30:45.880Z,3.10
2023-01-20T23:33:14.080Z,3.10
2023-01-20T23:35:52.281Z,3.10
2023-01-20T23:38:23.483Z,3.10
2023-01-20T23:40:53.244Z,3.10
2023-01-20T23:43:24.293Z,3.10
2023-01-20T23:46:00.197Z,3.10
2023-01-20T23:48:29.495Z,3.10
2023-01-20T23:51:00.945Z,3.10
2023-01-20T23:53:31.315Z,3.10
2023-01-20T23:56:06.828Z,3.00
2023-01-20T23:58:38.207Z,3.10
